Terminal Aerodrome Forecast
Issued by NWS Blacksburg, VA

Current Version | Previous Version | Text Only | Print | Product List | Glossary Off
Versions: 1 2 3 4 5 6 7 8 9 10 11 12 13 14 15 16 17 18 19 20 21 22 23 24 25 26 27 28 29 30 31

000
FTUS41 KRNK 090520
TAFBLF
TAF
KBLF 090520Z 0906/1006 28006KT P6SM -SHSN OVC014
      TEMPO 0906/0910 2SM -SHSN OVC007
     FM091100 28012G22KT 2SM -SHSN OVC003
     FM091400 27012G18KT 5SM -SHSN OVC015
     FM091700 28009G16KT P6SM -SHSN OVC015=

USA.gov is the U.S. government's official web portal to all federal, state and local government web resources and services.